Avondale, Washington
Current Conditions -  °F | °C
As of 12:53 AM on Sunday 26 Oct 2014 (Local Time) from KBFI Reporting Station
Clear Clear  
Wind Chill: 55°   Ceiling: Unl
Heat Index: 55°   Visibility: 10mi
Dew Point: 45°   Wind: 20mph
Humidity: 69%   Direction: 200°SSW
Pressure: 29.76"   Gusts: 30mph
Location:  47.6833°N, 122.123°W
Report Text: KBFI 260753Z 20017G26KT 10SM CLR 13/07 A2976 RMK AO2 PK WND 18026/0745 SLP078 T01280072 401780100
Loading
Personal Weather Stations






























Interactive Weather Map
Tropical Storm Tracking
New forecast layout! Learn more

10-Day Weather Forecast

Advertisements
Track Severe Weather on mobile